BIENTÔT MET'MAP
version 2.0 !

Prévue avant fin octobre,
la nouvelle version sera
plus belle, plus complète
et hébergée sur un serveur
3 fois plus puissant...
et toujours gratuite !


Pas compatible ?
Essayez la version Mobile !

SE CONNECTER : | S'inscrire | Disclaimer | Découvrir Orbifly |
Code OACI :

TAF - LATI Rinas Mother Teresa Arpt - Tirana - 31 May 2020 03:04 UTC - Data Source NOAA   


- Altitude de l'aérodrome : 126 ft
- Code IATA : TIA
- Pas de NOTAMs connus.


LATI - Rinas Mother Teresa Arpt - Tirana

Dernier METAR connu : 2015/08/11 08:20 LATI 110820Z VRB02KT 9999 FEW025 31/20 Q1012 NOSIG
TAF TAF LATI
Valide du 31 à 00h jusqu'au 01 à 00h UTC


302300Z 3100/3124 VRB05KT 9999 SCT050 BKN070 TX22/3112Z TN13/3104Z
TEMPO 3103/3109 RA BKN050
BECMG 3109/3112 24012KT FEW030CB BKN050
TEMPO 3111/3121 SHRA SCT025CB
TEMPO 3113/3118 TSRA

Source NOAA


MET'MAP, la Météo Aéronautique d'un coup d'oeil ! - Copyright ORBIFLY Décembre 2007

Développement & Programmation : Alexandra Zaïnal
Co-Développement : Marc-Olivier Méhu
Soutien technique & logistique : Manuel Goepfert
Conception & Financement : Baudouin d'Aumeries